Time;durP1;ratioP1;P1;durP2;ratioP2;P2;SDS_P1;SDS_P2;PMS_P1;PMS_P2;Temp;Humidity;BMP_temperature;BMP_pressure;BME280_temperature;BME280_humidity;BME280_pressure;Samples;Min_cycle;Max_cycle;Signal;HPM_P1;HPM_P2
2023/04/17 00:00:56;;;;;;;39.23;22.83;;;;;8.70;102036.00;;;;9859071;30;20291;-80
2023/04/17 00:05:59;;;;;;;43.43;25.00;;;;;8.70;102040.00;;;;9851912;30;20830;-80
2023/04/17 00:11:01;;;;;;;46.50;25.23;;;;;8.70;102042.00;;;;9833480;30;20215;-79
2023/04/17 00:16:12;;;;;;;45.27;24.60;;;;;8.70;102034.00;;;;9867070;30;20291;-78
2023/04/17 00:21:14;;;;;;;43.40;25.03;;;;;8.70;102025.00;;;;9864720;30;20206;-80
2023/04/17 00:26:18;;;;;;;41.43;24.70;;;;;8.70;102033.00;;;;9871656;29;20297;-79
2023/04/17 00:31:20;;;;;;;40.77;23.97;;;;;8.70;102031.00;;;;9853455;30;20239;-79
2023/04/17 00:36:22;;;;;;;43.17;25.00;;;;;8.70;102023.00;;;;9868941;30;20253;-80
2023/04/17 00:41:24;;;;;;;42.13;24.27;;;;;8.70;102022.00;;;;9853957;30;20200;-80
2023/04/17 00:46:26;;;;;;;45.50;24.37;;;;;8.70;102013.00;;;;9868924;30;20220;-80
2023/04/17 00:51:28;;;;;;;49.67;26.43;;;;;8.60;102007.00;;;;9883791;30;20283;-80
2023/04/17 00:56:30;;;;;;;44.50;25.40;;;;;8.60;102011.00;;;;9857221;29;20903;-79
2023/04/17 01:01:33;;;;;;;46.37;27.13;;;;;8.60;102007.00;;;;9818799;30;20254;-80
2023/04/17 01:06:35;;;;;;;52.60;25.13;;;;;8.50;102010.00;;;;9876207;30;20226;-79
2023/04/17 01:11:38;;;;;;;48.70;26.13;;;;;8.50;102011.00;;;;9869336;29;20431;-80
2023/04/17 01:16:40;;;;;;;50.23;25.77;;;;;8.50;102013.00;;;;9863454;30;20283;-80
2023/04/17 01:21:43;;;;;;;46.87;25.57;;;;;8.50;102020.00;;;;9883309;30;20241;-80
2023/04/17 01:26:45;;;;;;;51.10;27.93;;;;;8.50;102017.00;;;;9894722;30;20231;-80
2023/04/17 01:31:48;;;;;;;46.13;25.70;;;;;8.50;102013.00;;;;9893225;30;20195;-79
2023/04/17 01:36:51;;;;;;;55.33;27.03;;;;;8.50;102019.00;;;;9887597;30;20200;-80
2023/04/17 01:41:53;;;;;;;49.97;26.90;;;;;8.50;102017.00;;;;9873312;30;20282;-80
2023/04/17 01:46:55;;;;;;;54.40;27.47;;;;;8.50;102021.00;;;;9903402;30;20229;-79
2023/04/17 01:51:57;;;;;;;52.40;27.13;;;;;8.50;102018.00;;;;9873652;29;20341;-80
2023/04/17 01:57:00;;;;;;;46.33;25.30;;;;;8.50;102022.00;;;;9873622;29;20884;-80
2023/04/17 02:02:02;;;;;;;49.70;26.83;;;;;8.50;102018.00;;;;9842538;30;20204;-80
2023/04/17 02:07:05;;;;;;;50.03;26.03;;;;;8.60;102015.00;;;;9881060;30;20227;-81
2023/04/17 02:12:07;;;;;;;49.13;26.63;;;;;8.50;102016.00;;;;9874782;30;20232;-80
2023/04/17 02:17:09;;;;;;;50.07;27.30;;;;;8.50;102012.00;;;;9868270;30;20188;-80
2023/04/17 02:22:12;;;;;;;50.47;28.17;;;;;8.50;102011.00;;;;9885652;29;20199;-80
2023/04/17 02:27:13;;;;;;;51.70;29.47;;;;;8.50;102011.00;;;;9879398;30;20227;-80
2023/04/17 02:32:17;;;;;;;50.43;28.23;;;;;8.50;102010.00;;;;9869615;30;20214;-79
2023/04/17 02:37:20;;;;;;;54.17;26.83;;;;;8.50;102014.00;;;;9855879;30;20196;-79
2023/04/17 02:42:23;;;;;;;56.00;27.97;;;;;8.50;102006.00;;;;9876187;30;20278;-80
2023/04/17 02:47:25;;;;;;;61.53;30.43;;;;;8.40;102005.00;;;;9885261;29;20274;-79
2023/04/17 02:52:29;;;;;;;56.50;29.80;;;;;8.50;102005.00;;;;9886679;30;20265;-79
2023/04/17 02:57:31;;;;;;;60.33;30.77;;;;;8.50;102000.00;;;;9876623;29;20660;-79
2023/04/17 03:02:33;;;;;;;56.30;30.53;;;;;8.60;102002.00;;;;9871679;29;20239;-80
2023/04/17 03:07:35;;;;;;;59.50;33.00;;;;;8.60;101998.00;;;;9880831;30;20253;-79
2023/04/17 03:12:39;;;;;;;65.47;32.93;;;;;8.60;101998.00;;;;9869788;30;20218;-80
2023/04/17 03:17:41;;;;;;;58.43;30.53;;;;;8.60;101995.00;;;;9852941;30;20215;-80
2023/04/17 03:22:43;;;;;;;61.80;32.17;;;;;8.60;101998.00;;;;9868609;29;20285;-80
2023/04/17 03:27:45;;;;;;;61.30;29.80;;;;;8.60;101999.00;;;;9852716;30;20228;-80
2023/04/17 03:32:50;;;;;;;52.10;28.97;;;;;8.60;101993.00;;;;9861615;29;20207;-80
2023/04/17 03:37:52;;;;;;;49.07;28.00;;;;;8.50;102000.00;;;;9886004;30;20292;-79
2023/04/17 03:42:54;;;;;;;56.00;29.30;;;;;8.50;101998.00;;;;9853846;30;20200;-80
2023/04/17 03:47:58;;;;;;;48.53;28.10;;;;;8.50;101997.00;;;;9868729;30;20238;-79
2023/04/17 03:53:00;;;;;;;58.43;29.73;;;;;8.50;102000.00;;;;9879586;30;20295;-80
2023/04/17 03:58:04;;;;;;;54.30;29.30;;;;;8.50;101998.00;;;;9868250;29;20704;-79
2023/04/17 04:03:07;;;;;;;52.63;29.70;;;;;8.50;102000.00;;;;9853135;30;20211;-80
2023/04/17 04:08:14;;;;;;;53.37;30.93;;;;;8.50;101999.00;;;;9868572;30;20310;-80
2023/04/17 04:13:23;;;;;;;59.90;32.00;;;;;8.50;102005.00;;;;9868457;30;20679;-80
2023/04/17 04:18:30;;;;;;;49.83;29.33;;;;;8.50;101991.00;;;;9864105;30;20706;-80
2023/04/17 04:23:33;;;;;;;51.10;29.70;;;;;8.50;101990.00;;;;9847090;29;20227;-80
2023/04/17 04:28:36;;;;;;;51.17;30.47;;;;;8.50;101995.00;;;;9870478;29;20231;-80
2023/04/17 04:33:43;;;;;;;54.33;29.23;;;;;8.50;101991.00;;;;9866909;30;20199;-80
2023/04/17 04:38:49;;;;;;;60.87;32.67;;;;;8.50;101999.00;;;;9881972;30;20275;-79
2023/04/17 04:44:02;;;;;;;67.27;32.57;;;;;8.50;102002.00;;;;9822766;30;20325;-80
2023/04/17 04:49:06;;;;;;;57.30;32.13;;;;;8.50;102007.00;;;;9839535;30;20239;-80
2023/04/17 04:54:09;;;;;;;63.77;31.73;;;;;8.50;102010.00;;;;9896405;30;20200;-80
2023/04/17 04:59:20;;;;;;;62.27;33.20;;;;;8.50;102003.00;;;;9879638;30;20204;-80
2023/04/17 05:04:30;;;;;;;52.03;32.00;;;;;8.50;102006.00;;;;9871055;30;20604;-80
2023/04/17 05:09:35;;;;;;;55.80;31.40;;;;;8.60;102002.00;;;;9863850;29;20665;-81
2023/04/17 05:14:39;;;;;;;59.20;32.07;;;;;8.60;102003.00;;;;9880863;30;20188;-80
2023/04/17 05:19:42;;;;;;;56.00;31.70;;;;;8.70;102005.00;;;;9867317;30;20218;-80
2023/04/17 05:24:45;;;;;;;56.83;32.03;;;;;8.80;102024.00;;;;9883475;29;20246;-80
2023/04/17 05:29:47;;;;;;;60.17;32.27;;;;;8.80;102023.00;;;;9870954;30;20204;-80
2023/04/17 05:34:49;;;;;;;53.43;30.67;;;;;8.90;102030.00;;;;9882374;29;20200;-81
2023/04/17 05:39:55;;;;;;;56.60;31.57;;;;;9.00;102026.00;;;;9860554;29;20211;-80
2023/04/17 05:44:57;;;;;;;50.43;29.37;;;;;9.20;102024.00;;;;9879134;30;20216;-80
2023/04/17 05:49:59;;;;;;;47.57;27.43;;;;;9.30;102036.00;;;;9866594;30;20287;-80
2023/04/17 05:55:03;;;;;;;45.33;27.93;;;;;9.30;102019.00;;;;9870674;29;20203;-81
2023/04/17 06:00:11;;;;;;;47.33;28.40;;;;;9.40;102036.00;;;;9852312;29;20659;-81
2023/04/17 06:05:20;;;;;;;39.10;25.87;;;;;9.50;102035.00;;;;9867766;29;20216;-81
2023/04/17 06:10:22;;;;;;;47.37;26.13;;;;;9.50;102035.00;;;;9859004;29;20200;-81
2023/04/17 06:15:25;;;;;;;44.20;25.87;;;;;9.50;102044.00;;;;9856720;29;20199;-81
2023/04/17 06:20:27;;;;;;;38.73;24.40;;;;;9.60;102041.00;;;;9881917;29;20192;-80
2023/04/17 06:25:30;;;;;;;45.33;24.37;;;;;9.60;102051.00;;;;9865529;29;20208;-80
2023/04/17 06:30:32;;;;;;;36.70;24.43;;;;;9.50;102054.00;;;;9866690;30;20232;-80
2023/04/17 06:35:35;;;;;;;41.77;25.17;;;;;9.50;102057.00;;;;9870731;29;20958;-80
2023/04/17 06:41:09;;;;;;;42.47;25.43;;;;;9.50;102066.00;;;;9867054;30;20939;-80
2023/04/17 06:46:14;;;;;;;40.97;24.73;;;;;9.50;102070.00;;;;9853722;30;20280;-80
2023/04/17 06:51:19;;;;;;;40.40;23.80;;;;;9.60;102072.00;;;;9863204;29;20207;-80
2023/04/17 06:56:23;;;;;;;39.10;23.70;;;;;9.70;102074.00;;;;9863051;29;20228;-81
2023/04/17 07:01:26;;;;;;;40.30;22.77;;;;;9.80;102081.00;;;;9845410;29;20253;-81
2023/04/17 07:06:28;;;;;;;38.53;23.03;;;;;9.80;102082.00;;;;9860051;29;20220;-79
2023/04/17 07:11:30;;;;;;;39.37;23.80;;;;;9.90;102086.00;;;;9872089;29;20204;-81
2023/04/17 07:16:32;;;;;;;47.20;25.83;;;;;9.80;102098.00;;;;9849381;29;20293;-81
2023/04/17 07:21:35;;;;;;;37.27;22.40;;;;;9.80;102097.00;;;;9897370;29;20203;-80
2023/04/17 07:26:39;;;;;;;42.53;25.60;;;;;9.70;102097.00;;;;9895240;29;20223;-81
2023/04/17 07:31:41;;;;;;;39.70;24.90;;;;;9.70;102107.00;;;;9866173;29;20196;-81
2023/04/17 07:36:43;;;;;;;39.33;25.13;;;;;10.00;102102.00;;;;9866654;29;20696;-80
2023/04/17 07:41:45;;;;;;;40.20;25.33;;;;;10.40;102100.00;;;;9869833;29;20207;-81
2023/04/17 07:46:47;;;;;;;40.90;24.83;;;;;10.40;102094.00;;;;9852989;29;20220;-82
2023/04/17 07:51:50;;;;;;;39.30;25.07;;;;;10.60;102090.00;;;;9857402;29;20207;-81
2023/04/17 07:56:55;;;;;;;35.07;23.80;;;;;11.00;102091.00;;;;9906697;29;20269;-81
2023/04/17 08:01:57;;;;;;;34.87;23.63;;;;;11.10;102097.00;;;;9791965;29;20227;-83
2023/04/17 08:07:00;;;;;;;35.70;24.00;;;;;10.90;102094.00;;;;9868865;29;20227;-82
2023/04/17 08:12:02;;;;;;;39.23;24.10;;;;;10.90;102104.00;;;;9867798;29;20200;-83
2023/04/17 08:17:06;;;;;;;30.17;22.23;;;;;11.30;102097.00;;;;9861535;29;20226;-82
2023/04/17 08:22:08;;;;;;;33.87;23.13;;;;;11.30;102099.00;;;;9877192;29;20708;-81
2023/04/17 08:27:12;;;;;;;33.53;22.83;;;;;11.10;102102.00;;;;9860928;29;20558;-82
2023/04/17 08:32:14;;;;;;;37.50;24.87;;;;;11.40;102104.00;;;;9870712;29;20199;-83
2023/04/17 08:37:16;;;;;;;40.03;25.67;;;;;11.40;102107.00;;;;9854614;29;20714;-82
2023/04/17 08:42:18;;;;;;;37.77;24.47;;;;;11.50;102109.00;;;;9888779;29;20291;-82
2023/04/17 08:47:21;;;;;;;33.53;24.47;;;;;11.50;102109.00;;;;9853176;29;20235;-82
2023/04/17 08:52:23;;;;;;;35.60;24.50;;;;;11.40;102109.00;;;;9875595;29;20306;-81
2023/04/17 08:57:25;;;;;;;41.73;25.37;;;;;11.40;102117.00;;;;9883859;29;20246;-82
2023/04/17 09:02:27;;;;;;;37.27;24.50;;;;;11.40;102121.00;;;;9869228;29;20239;-81
2023/04/17 09:07:29;;;;;;;37.20;25.10;;;;;11.50;102107.00;;;;9882501;29;20241;-82
2023/04/17 09:12:31;;;;;;;36.73;26.63;;;;;11.60;102116.00;;;;9858020;29;21040;-81
2023/04/17 09:17:36;;;;;;;41.70;27.43;;;;;12.00;102105.00;;;;9888919;29;20319;-81
2023/04/17 09:22:39;;;;;;;38.07;25.73;;;;;12.00;102104.00;;;;9868734;29;20212;-82
2023/04/17 09:27:41;;;;;;;41.70;26.63;;;;;11.80;102109.00;;;;9860890;29;20238;-82
2023/04/17 09:32:43;;;;;;;42.43;28.47;;;;;12.10;102108.00;;;;9854224;29;20208;-82
2023/04/17 09:37:53;;;;;;;45.57;27.70;;;;;12.30;102109.00;;;;9867441;29;20228;-82
2023/04/17 09:43:05;;;;;;;43.93;27.53;;;;;12.80;102105.00;;;;9872187;29;20200;-83
2023/04/17 09:48:11;;;;;;;44.80;27.33;;;;;12.70;102110.00;;;;9848451;29;20264;-83
2023/04/17 09:53:15;;;;;;;39.33;26.20;;;;;12.90;102116.00;;;;9848306;29;20210;-82
2023/04/17 09:58:18;;;;;;;39.50;25.93;;;;;12.50;102116.00;;;;9874928;29;20225;-81
2023/04/17 10:03:22;;;;;;;39.70;26.67;;;;;12.70;102132.00;;;;9861051;29;20199;-82
2023/04/17 10:08:24;;;;;;;36.70;25.23;;;;;12.50;102126.00;;;;9875919;29;20228;-82
2023/04/17 10:13:28;;;;;;;41.90;28.27;;;;;12.80;102122.00;;;;9865469;29;20787;-81
2023/04/17 10:18:32;;;;;;;36.13;25.30;;;;;12.80;102121.00;;;;9860732;29;20231;-82
2023/04/17 10:23:34;;;;;;;38.37;26.70;;;;;13.90;102112.00;;;;9877961;29;20257;-82
2023/04/17 10:28:47;;;;;;;35.07;25.03;;;;;14.30;102107.00;;;;9887322;29;20223;-83
2023/04/17 10:33:51;;;;;;;38.43;27.40;;;;;14.00;102102.00;;;;9873639;29;20602;-83
2023/04/17 10:39:14;;;;;;;35.70;25.40;;;;;13.50;102101.00;;;;9863840;30;20204;-83
2023/04/17 10:44:17;;;;;;;36.23;25.67;;;;;13.30;102105.00;;;;9859208;29;20248;-82
2023/04/17 10:49:22;;;;;;;35.40;25.80;;;;;15.30;102091.00;;;;9846737;29;20235;-83
2023/04/17 10:54:24;;;;;;;30.98;23.63;;;;;16.20;102093.00;;;;9874041;30;20221;-82
2023/04/17 10:59:28;;;;;;;30.70;23.33;;;;;15.00;102092.00;;;;9862535;29;20849;-81
2023/04/17 11:04:32;;;;;;;29.17;23.60;;;;;15.00;102092.00;;;;9872641;30;20249;-80
2023/04/17 11:09:35;;;;;;;31.63;22.83;;;;;14.90;102080.00;;;;9887160;29;20247;-83
2023/04/17 11:14:39;;;;;;;29.77;22.33;;;;;15.40;102088.00;;;;9871885;29;20199;-81
2023/04/17 11:19:41;;;;;;;29.50;23.50;;;;;17.80;102074.00;;;;9888363;30;20230;-82
2023/04/17 11:24:46;;;;;;;28.73;21.88;;;;;18.10;102071.00;;;;9860503;30;20200;-81
2023/04/17 11:29:48;;;;;;;27.00;20.50;;;;;17.60;102062.00;;;;9865788;30;20258;-82
2023/04/17 11:34:53;;;;;;;26.00;21.30;;;;;19.20;102062.00;;;;9863942;29;20214;-79
2023/04/17 11:40:04;;;;;;;28.10;21.08;;;;;19.50;102076.00;;;;9887801;29;20234;-79
2023/04/17 11:45:07;;;;;;;26.45;20.88;;;;;18.90;102072.00;;;;9861697;29;20202;-79
2023/04/17 11:50:10;;;;;;;28.17;21.50;;;;;19.00;102071.00;;;;9877494;29;20302;-78
2023/04/17 11:55:14;;;;;;;26.27;21.33;;;;;19.20;102066.00;;;;9866023;29;20227;-79
2023/04/17 12:00:17;;;;;;;24.23;20.42;;;;;17.80;102075.00;;;;9839957;29;20223;-79
2023/04/17 12:05:19;;;;;;;28.80;22.08;;;;;17.00;102083.00;;;;9871226;29;20257;-78
2023/04/17 12:10:22;;;;;;;28.70;22.52;;;;;15.90;102075.00;;;;9850116;29;20202;-78
2023/04/17 12:15:26;;;;;;;26.23;21.05;;;;;15.40;102078.00;;;;9847225;29;20227;-80
2023/04/17 12:20:29;;;;;;;28.13;20.83;;;;;15.80;102082.00;;;;9854589;29;20207;-79
2023/04/17 12:25:32;;;;;;;28.55;21.15;;;;;16.00;102079.00;;;;9874362;29;20211;-79
2023/04/17 12:30:35;;;;;;;29.02;21.80;;;;;15.60;102078.00;;;;9863402;29;20201;-79
2023/04/17 12:35:37;;;;;;;24.55;18.23;;;;;15.60;102071.00;;;;9855536;29;20207;-79
2023/04/17 12:40:42;;;;;;;27.00;19.40;;;;;15.70;102064.00;;;;9864510;29;20238;-80
2023/04/17 12:45:46;;;;;;;26.08;18.38;;;;;15.30;102075.00;;;;9891514;29;20279;-80
2023/04/17 12:50:48;;;;;;;27.90;20.40;;;;;15.80;102068.00;;;;9863955;30;20196;-79
2023/04/17 12:55:50;;;;;;;26.55;19.40;;;;;16.60;102062.00;;;;9866177;29;20218;-79
2023/04/17 13:00:52;;;;;;;22.98;18.65;;;;;17.00;102065.00;;;;9840699;29;20203;-79
2023/04/17 13:05:54;;;;;;;25.23;19.63;;;;;17.30;102057.00;;;;9865157;29;20755;-78
2023/04/17 13:10:56;;;;;;;24.92;21.05;;;;;18.00;102051.00;;;;9879640;29;20196;-80
2023/04/17 13:15:59;;;;;;;30.58;20.63;;;;;18.20;102046.00;;;;9836013;29;20219;-80
2023/04/17 13:21:01;;;;;;;25.95;19.95;;;;;17.10;102044.00;;;;9874579;29;20203;-80
2023/04/17 13:26:04;;;;;;;24.52;19.63;;;;;16.70;102046.00;;;;9866260;29;20728;-79
2023/04/17 13:31:07;;;;;;;24.92;20.08;;;;;16.20;102048.00;;;;9882629;29;20196;-81
2023/04/17 13:36:10;;;;;;;28.10;20.55;;;;;16.00;102042.00;;;;9863866;29;20200;-79
2023/04/17 13:41:12;;;;;;;28.83;20.38;;;;;16.00;102036.00;;;;9864042;29;20200;-81
2023/04/17 13:46:15;;;;;;;23.52;19.15;;;;;15.60;102028.00;;;;9869465;29;20219;-80
2023/04/17 13:51:17;;;;;;;28.38;21.05;;;;;15.50;102032.00;;;;9873890;29;20246;-81
2023/04/17 13:56:22;;;;;;;26.90;19.60;;;;;15.90;102022.00;;;;9877774;29;20230;-79
2023/04/17 14:01:24;;;;;;;24.58;19.67;;;;;16.80;102012.00;;;;9861213;29;20673;-80
2023/04/17 14:06:27;;;;;;;28.70;19.75;;;;;19.90;102017.00;;;;9865733;29;20219;-80
2023/04/17 14:11:29;;;;;;;23.23;19.48;;;;;20.40;102013.00;;;;9847081;30;20839;-81
2023/04/17 14:16:32;;;;;;;25.88;19.55;;;;;20.30;102010.00;;;;9879866;29;20676;-80
2023/04/17 14:21:34;;;;;;;23.75;18.23;;;;;22.00;101999.00;;;;9836330;30;20214;-80
2023/04/17 14:26:37;;;;;;;22.13;18.77;;;;;19.60;102011.00;;;;9846244;29;20255;-80
2023/04/17 14:31:39;;;;;;;23.88;17.40;;;;;19.20;102010.00;;;;9885153;29;20203;-80
2023/04/17 14:36:44;;;;;;;23.90;17.88;;;;;17.70;102011.00;;;;9871343;30;20280;-80
2023/04/17 14:41:47;;;;;;;22.38;17.85;;;;;18.30;101990.00;;;;9865890;30;20202;-81
2023/04/17 14:46:49;;;;;;;21.55;17.27;;;;;22.90;101972.00;;;;9862116;29;20252;-81
2023/04/17 14:51:55;;;;;;;23.23;18.38;;;;;23.80;101972.00;;;;9867927;30;20195;-80
2023/04/17 14:56:57;;;;;;;23.00;18.48;;;;;23.10;101975.00;;;;9874351;29;20199;-81
2023/04/17 15:01:59;;;;;;;24.17;17.52;;;;;24.20;101953.00;;;;9878447;30;20233;-80
2023/04/17 15:07:02;;;;;;;22.55;17.30;;;;;22.10;101966.00;;;;9872321;30;20227;-80
2023/04/17 15:12:04;;;;;;;21.65;16.77;;;;;21.30;101963.00;;;;9838961;30;20204;-81
2023/04/17 15:17:07;;;;;;;21.52;17.80;;;;;20.60;101955.00;;;;9835897;30;20285;-81
2023/04/17 15:22:09;;;;;;;25.60;18.83;;;;;19.80;101956.00;;;;9872948;30;20323;-81
2023/04/17 15:27:11;;;;;;;20.83;17.42;;;;;19.60;101949.00;;;;9861331;30;20228;-81
2023/04/17 15:32:13;;;;;;;18.98;15.40;;;;;18.30;101944.00;;;;9852454;29;20198;-81
2023/04/17 15:37:16;;;;;;;22.20;16.38;;;;;17.00;101946.00;;;;9874994;29;20195;-81
2023/04/17 15:42:18;;;;;;;24.45;17.88;;;;;16.50;101957.00;;;;9890009;29;20441;-81
2023/04/17 15:47:20;;;;;;;23.30;17.63;;;;;16.70;101949.00;;;;9867893;29;20350;-80
2023/04/17 15:52:22;;;;;;;21.70;16.98;;;;;17.90;101946.00;;;;9846492;29;20304;-80
2023/04/17 15:57:24;;;;;;;21.33;16.65;;;;;18.30;101939.00;;;;9876442;29;20232;-80
2023/04/17 16:02:27;;;;;;;22.35;17.20;;;;;18.00;101942.00;;;;9852233;29;20231;-81
2023/04/17 16:07:30;;;;;;;21.05;15.38;;;;;17.70;101944.00;;;;9861482;30;20507;-80
2023/04/17 16:12:32;;;;;;;22.02;15.30;;;;;17.30;101939.00;;;;9822967;29;20211;-80
2023/04/17 16:17:34;;;;;;;20.50;14.95;;;;;16.80;101945.00;;;;9821648;29;20215;-81
2023/04/17 16:22:36;;;;;;;22.23;15.70;;;;;16.40;101934.00;;;;9810793;29;20208;-80
2023/04/17 16:27:39;;;;;;;24.27;17.10;;;;;16.20;101936.00;;;;10107653;24;20643;-82
2023/04/17 16:32:48;;;;;;;21.20;15.95;;;;;15.90;101931.00;;;;10114104;24;20233;-81
2023/04/17 16:37:51;;;;;;;20.23;15.48;;;;;15.80;101943.00;;;;9808361;29;20818;-80
2023/04/17 16:42:53;;;;;;;20.17;15.02;;;;;15.70;101935.00;;;;10057625;24;21470;-82
2023/04/17 16:47:55;;;;;;;19.70;14.75;;;;;15.70;101930.00;;;;9806594;29;20232;-82
2023/04/17 16:52:57;;;;;;;20.55;15.77;;;;;15.70;101928.00;;;;9794001;29;20446;-82
2023/04/17 16:58:37;;;;;;;21.67;14.20;;;;;15.70;101924.00;;;;10091101;24;20492;31
2023/04/17 17:03:41;;;;;;;23.73;15.00;;;;;15.60;101916.00;;;;9766352;30;20399;-80
2023/04/17 17:08:45;;;;;;;20.33;14.25;;;;;15.20;101923.00;;;;9949735;24;20246;-80
2023/04/17 17:13:48;;;;;;;19.08;14.05;;;;;15.00;101927.00;;;;10048788;24;20404;-80
2023/04/17 17:18:51;;;;;;;19.65;15.02;;;;;14.80;101924.00;;;;9861765;29;20222;-81
2023/04/17 17:23:53;;;;;;;22.48;15.25;;;;;14.80;101922.00;;;;9829880;29;20213;-81
2023/04/17 17:28:55;;;;;;;21.77;15.35;;;;;14.80;101923.00;;;;10118963;24;20725;-80
2023/04/17 17:34:01;;;;;;;22.38;15.02;;;;;14.70;101924.00;;;;11740991;24;20201;-82
2023/04/17 17:39:23;;;;;;;19.52;15.20;;;;;14.60;101917.00;;;;9736538;29;20962;-82
2023/04/17 17:44:25;;;;;;;19.13;14.03;;;;;14.50;101925.00;;;;9738075;29;20272;-82
2023/04/17 17:49:27;;;;;;;22.03;14.87;;;;;14.30;101927.00;;;;9708103;29;20238;-82
2023/04/17 17:54:29;;;;;;;21.70;14.23;;;;;14.10;101933.00;;;;9734302;29;20230;-83
2023/04/17 17:59:31;;;;;;;17.87;14.10;;;;;13.90;101931.00;;;;9706563;29;20267;-83
2023/04/17 18:04:33;;;;;;;18.23;14.27;;;;;13.60;101931.00;;;;9703545;29;21733;-82
2023/04/17 18:09:35;;;;;;;19.33;14.67;;;;;13.40;101928.00;;;;9706145;29;20234;-82
2023/04/17 18:14:37;;;;;;;19.57;14.27;;;;;13.20;101929.00;;;;9719642;29;20239;-83
2023/04/17 18:19:40;;;;;;;20.60;14.10;;;;;13.00;101934.00;;;;9684508;29;20483;-82
2023/04/17 18:24:42;;;;;;;20.33;14.50;;;;;12.80;101927.00;;;;9645233;29;20239;-82
2023/04/17 18:29:44;;;;;;;22.07;15.37;;;;;12.60;101938.00;;;;9688028;29;20235;-82
2023/04/17 18:34:50;;;;;;;20.23;14.67;;;;;12.30;101940.00;;;;10147018;24;21631;-80
2023/04/17 18:40:00;;;;;;;18.63;13.87;;;;;12.10;101943.00;;;;6752444;24;22288;-80
2023/04/17 18:51:16;;;;;;;22.60;15.80;;;;;11.70;101954.00;;;;8182909;24;24496;-80
2023/04/17 18:57:04;;;;;;;18.20;14.10;;;;;11.50;101946.00;;;;9897392;24;20248;31
2023/04/17 19:02:06;;;;;;;18.80;14.80;;;;;11.40;101959.00;;;;9611731;29;21038;-81
2023/04/17 19:07:09;;;;;;;18.83;15.53;;;;;11.20;101956.00;;;;9657694;29;20234;-82
2023/04/17 19:12:10;;;;;;;20.07;16.27;;;;;11.00;101957.00;;;;9641233;29;21451;-81
2023/04/17 19:17:14;;;;;;;18.50;16.03;;;;;10.80;101964.00;;;;10221014;24;20226;-79
2023/04/17 19:22:17;;;;;;;22.03;17.03;;;;;10.60;101972.00;;;;9680871;29;20226;-79
2023/04/17 19:27:19;;;;;;;22.27;15.87;;;;;10.50;101971.00;;;;9727814;29;20238;-80
2023/04/17 19:32:21;;;;;;;16.93;13.27;;;;;10.50;101981.00;;;;9729639;29;21919;-80
2023/04/17 19:37:23;;;;;;;20.37;14.37;;;;;10.40;101987.00;;;;9663281;29;20954;-79
2023/04/17 19:42:25;;;;;;;20.70;14.80;;;;;10.30;101984.00;;;;9686541;29;20211;-80
2023/04/17 19:47:28;;;;;;;23.50;17.07;;;;;10.20;101985.00;;;;9697581;29;20268;-80
2023/04/17 19:52:30;;;;;;;24.40;15.37;;;;;10.10;101977.00;;;;9896964;24;20238;-80
2023/04/17 19:57:32;;;;;;;18.33;13.57;;;;;10.00;101988.00;;;;9714993;29;20402;-79
2023/04/17 20:02:34;;;;;;;19.33;13.53;;;;;10.00;101992.00;;;;9711121;29;20210;-80
2023/04/17 20:07:36;;;;;;;17.17;12.83;;;;;10.00;102000.00;;;;9736226;29;20273;-80
2023/04/17 20:12:38;;;;;;;21.13;14.07;;;;;9.90;101991.00;;;;9706310;29;20771;-80
2023/04/17 20:17:40;;;;;;;19.10;14.17;;;;;9.80;101990.00;;;;9663285;29;20239;-80
2023/04/17 20:22:43;;;;;;;19.07;12.33;;;;;9.80;101992.00;;;;9676477;29;20552;-79
2023/04/17 20:27:45;;;;;;;16.97;12.17;;;;;9.70;101991.00;;;;9707673;29;20331;-79
2023/04/17 20:39:25;;;;;;;22.03;15.23;;;;;10.00;101999.00;;;;2344959;24;20466;-82
2023/04/17 20:44:27;;;;;;;21.93;15.90;;;;;10.00;101989.00;;;;9796702;29;20261;-82
2023/04/17 20:49:29;;;;;;;23.60;16.93;;;;;10.00;101990.00;;;;9808532;29;20238;-82
2023/04/17 20:54:34;;;;;;;20.53;15.83;;;;;10.00;101991.00;;;;9766051;29;20929;-82
2023/04/17 20:59:36;;;;;;;23.27;17.10;;;;;9.90;101984.00;;;;9781394;29;20226;-81
2023/04/17 21:04:38;;;;;;;24.47;18.40;;;;;9.80;101982.00;;;;9784889;29;20214;-82
2023/04/17 21:09:40;;;;;;;27.50;21.17;;;;;9.80;101992.00;;;;9778042;29;20282;-82
2023/04/17 21:14:42;;;;;;;24.87;19.20;;;;;9.80;101987.00;;;;9793510;29;20216;-82
2023/04/17 21:19:45;;;;;;;28.23;19.60;;;;;9.80;101998.00;;;;9793893;29;20214;-82
2023/04/17 21:24:47;;;;;;;24.30;18.93;;;;;9.70;101993.00;;;;9792932;29;20219;-82
2023/04/17 21:29:49;;;;;;;28.13;20.60;;;;;9.70;101990.00;;;;9796086;29;20838;-82
2023/04/17 21:34:50;;;;;;;27.27;20.03;;;;;9.60;101991.00;;;;9812870;29;20257;-82
2023/04/17 21:39:53;;;;;;;37.87;22.27;;;;;9.60;101990.00;;;;9814158;29;20222;-82
2023/04/17 21:44:55;;;;;;;26.80;20.07;;;;;9.60;101998.00;;;;9787036;29;20271;-82
2023/04/17 21:49:58;;;;;;;30.97;20.30;;;;;9.60;101995.00;;;;9798472;29;20288;-82
2023/04/17 21:55:06;;;;;;;39.03;23.27;;;;;9.50;102001.00;;;;9812316;29;21958;-82
2023/04/17 22:00:11;;;;;;;30.43;21.93;;;;;9.40;101993.00;;;;9785060;29;20222;-82
2023/04/17 22:05:13;;;;;;;33.17;23.57;;;;;9.30;101995.00;;;;9797301;29;20315;-81
2023/04/17 22:10:15;;;;;;;34.83;22.87;;;;;9.20;101986.00;;;;9798114;29;20315;-82
2023/04/17 22:15:17;;;;;;;33.37;23.63;;;;;9.20;101991.00;;;;9793526;29;20284;-82
2023/04/17 22:20:19;;;;;;;36.50;23.47;;;;;9.10;101989.00;;;;9754154;29;20222;-82
2023/04/17 22:25:21;;;;;;;35.47;25.23;;;;;9.10;101995.00;;;;9782616;29;21539;-82
2023/04/17 22:30:23;;;;;;;33.53;25.17;;;;;9.10;102000.00;;;;9766064;29;22031;-81
2023/04/17 22:35:25;;;;;;;35.10;24.13;;;;;9.10;101996.00;;;;9742883;29;20263;-82
2023/04/17 22:40:28;;;;;;;35.37;24.40;;;;;9.00;102000.00;;;;9777380;29;20341;-83
2023/04/17 22:45:31;;;;;;;36.07;24.47;;;;;9.00;102008.00;;;;9772980;29;21076;-81
2023/04/17 22:50:33;;;;;;;32.83;24.93;;;;;8.90;102003.00;;;;9742851;29;22068;-81
2023/04/17 22:55:36;;;;;;;35.27;23.13;;;;;8.90;102009.00;;;;9760631;29;20465;-81
2023/04/17 23:00:37;;;;;;;35.23;24.37;;;;;8.80;102008.00;;;;9734533;29;21505;-81
2023/04/17 23:05:39;;;;;;;41.60;24.70;;;;;8.80;102000.00;;;;9748220;29;20225;-82
2023/04/17 23:10:41;;;;;;;35.80;24.60;;;;;8.70;102009.00;;;;9751150;29;20350;-81
2023/04/17 23:15:43;;;;;;;36.43;25.27;;;;;8.70;102009.00;;;;9767551;29;20226;-82
2023/04/17 23:20:45;;;;;;;34.93;24.20;;;;;8.60;102016.00;;;;9749362;29;21292;-81
2023/04/17 23:25:47;;;;;;;33.13;24.37;;;;;8.60;102016.00;;;;9778313;29;20222;-82
2023/04/17 23:30:49;;;;;;;34.57;23.93;;;;;8.50;102013.00;;;;9777344;29;20252;-82
2023/04/17 23:35:51;;;;;;;35.93;25.73;;;;;8.50;102017.00;;;;9756415;29;21330;-82
2023/04/17 23:40:53;;;;;;;37.43;24.70;;;;;8.50;102023.00;;;;9774982;29;20854;-82
2023/04/17 23:45:56;;;;;;;39.03;26.30;;;;;8.50;102018.00;;;;9753607;29;20583;-81
2023/04/17 23:50:59;;;;;;;35.80;25.03;;;;;8.40;102023.00;;;;9754188;29;20268;-82
2023/04/17 23:56:01;;;;;;;38.43;26.63;;;;;8.40;102019.00;;;;9772023;29;20511;-82
